sensor_id;sensor_type;location;lat;lon;timestamp;pressure;altitude;pressure_sealevel;temperature;humidity
596;BME280;19946;49.306;11.350;2023-03-04T00:02:22;96690.00;;;-4.18;100.00
596;BME280;19946;49.306;11.350;2023-03-04T00:05:23;96630.88;;;-4.48;100.00
596;BME280;19946;49.306;11.350;2023-03-04T00:08:23;96691.09;;;-4.28;100.00
596;BME280;19946;49.306;11.350;2023-03-04T00:11:24;96725.19;;;-4.09;100.00
596;BME280;19946;49.306;11.350;2023-03-04T00:14:24;96650.06;;;-4.41;100.00
596;BME280;19946;49.306;11.350;2023-03-04T00:17:24;96777.34;;;-3.68;100.00
596;BME280;19946;49.306;11.350;2023-03-04T00:20:25;96599.78;;;-4.88;100.00
596;BME280;19946;49.306;11.350;2023-03-04T00:23:25;96697.91;;;-4.31;100.00
596;BME280;19946;49.306;11.350;2023-03-04T00:26:26;96710.59;;;-4.33;100.00
596;BME280;19946;49.306;11.350;2023-03-04T00:29:27;96775.31;;;-3.89;100.00
596;BME280;19946;49.306;11.350;2023-03-04T00:32:27;96755.69;;;-4.15;100.00
596;BME280;19946;49.306;11.350;2023-03-04T00:35:27;96717.66;;;-4.47;100.00
596;BME280;19946;49.306;11.350;2023-03-04T00:38:28;96765.09;;;-4.21;100.00
596;BME280;19946;49.306;11.350;2023-03-04T00:41:28;96743.41;;;-4.31;100.00
596;BME280;19946;49.306;11.350;2023-03-04T00:44:29;96660.47;;;-4.91;100.00
596;BME280;19946;49.306;11.350;2023-03-04T00:47:29;96670.16;;;-4.71;100.00
596;BME280;19946;49.306;11.350;2023-03-04T00:50:30;96792.69;;;-4.11;100.00
596;BME280;19946;49.306;11.350;2023-03-04T00:53:30;96688.81;;;-4.77;100.00
596;BME280;19946;49.306;11.350;2023-03-04T00:56:30;96738.53;;;-4.39;100.00
596;BME280;19946;49.306;11.350;2023-03-04T00:59:31;96766.91;;;-4.26;100.00
596;BME280;19946;49.306;11.350;2023-03-04T01:02:34;96783.69;;;-4.22;100.00
596;BME280;19946;49.306;11.350;2023-03-04T01:05:54;96765.44;;;-4.36;100.00
596;BME280;19946;49.306;11.350;2023-03-04T01:08:56;96745.94;;;-4.31;100.00
596;BME280;19946;49.306;11.350;2023-03-04T01:15:13;96641.03;;;-4.88;100.00
596;BME280;19946;49.306;11.350;2023-03-04T01:18:14;96756.38;;;-4.08;100.00
596;BME280;19946;49.306;11.350;2023-03-04T01:21:15;96652.75;;;-4.85;100.00
596;BME280;19946;49.306;11.350;2023-03-04T01:24:15;96762.72;;;-4.27;100.00
596;BME280;19946;49.306;11.350;2023-03-04T01:27:15;96762.84;;;-4.33;100.00
596;BME280;19946;49.306;11.350;2023-03-04T01:30:17;96771.69;;;-4.14;100.00
596;BME280;19946;49.306;11.350;2023-03-04T01:33:24;96766.53;;;-4.10;100.00
596;BME280;19946;49.306;11.350;2023-03-04T01:36:28;96697.50;;;-4.52;100.00
596;BME280;19946;49.306;11.350;2023-03-04T01:39:35;96766.69;;;-4.16;100.00
596;BME280;19946;49.306;11.350;2023-03-04T02:20:34;96756.13;;;-4.34;100.00
596;BME280;19946;49.306;11.350;2023-03-04T02:27:05;96617.13;;;-5.11;100.00
596;BME280;19946;49.306;11.350;2023-03-04T02:30:22;96431.03;;;-6.22;100.00
596;BME280;19946;49.306;11.350;2023-03-04T02:33:24;96448.88;;;-6.33;100.00
596;BME280;19946;49.306;11.350;2023-03-04T02:36:25;96733.63;;;-4.47;100.00
596;BME280;19946;49.306;11.350;2023-03-04T02:39:39;96732.00;;;-4.49;100.00
596;BME280;19946;49.306;11.350;2023-03-04T02:42:43;96363.97;;;-6.72;100.00
596;BME280;19946;49.306;11.350;2023-03-04T02:46:02;96379.63;;;-6.56;100.00
596;BME280;19946;49.306;11.350;2023-03-04T02:49:28;96718.75;;;-4.60;100.00
596;BME280;19946;49.306;11.350;2023-03-04T03:18:49;96471.53;;;-6.33;100.00
596;BME280;19946;49.306;11.350;2023-03-04T03:21:51;96360.91;;;-6.89;100.00
596;BME280;19946;49.306;11.350;2023-03-04T03:24:51;96464.94;;;-6.38;100.00
596;BME280;19946;49.306;11.350;2023-03-04T03:27:53;96716.50;;;-4.74;100.00
596;BME280;19946;49.306;11.350;2023-03-04T03:30:54;96694.81;;;-4.84;100.00
596;BME280;19946;49.306;11.350;2023-03-04T03:33:59;96704.09;;;-4.85;100.00
596;BME280;19946;49.306;11.350;2023-03-04T03:37:03;96718.75;;;-5.02;100.00
596;BME280;19946;49.306;11.350;2023-03-04T03:40:04;96639.78;;;-5.52;100.00
596;BME280;19946;49.306;11.350;2023-03-04T03:43:06;96719.56;;;-5.00;100.00
596;BME280;19946;49.306;11.350;2023-03-04T03:46:06;96651.47;;;-5.47;100.00
596;BME280;19946;49.306;11.350;2023-03-04T03:53:20;96715.47;;;-5.05;100.00
596;BME280;19946;49.306;11.350;2023-03-04T03:57:31;96706.56;;;-5.23;100.00
596;BME280;19946;49.306;11.350;2023-03-04T04:01:10;96701.66;;;-5.31;100.00
596;BME280;19946;49.306;11.350;2023-03-04T04:04:36;96719.06;;;-5.19;100.00
596;BME280;19946;49.306;11.350;2023-03-04T04:12:29;96706.69;;;-5.31;100.00
596;BME280;19946;49.306;11.350;2023-03-04T04:16:14;96692.41;;;-5.32;100.00
596;BME280;19946;49.306;11.350;2023-03-04T04:19:59;96724.22;;;-5.23;100.00
596;BME280;19946;49.306;11.350;2023-03-04T04:23:40;96722.75;;;-5.35;100.00
596;BME280;19946;49.306;11.350;2023-03-04T04:27:37;96731.75;;;-5.20;100.00
596;BME280;19946;49.306;11.350;2023-03-04T04:31:27;96729.28;;;-5.23;100.00
596;BME280;19946;49.306;11.350;2023-03-04T04:39:41;96701.88;;;-5.43;100.00
596;BME280;19946;49.306;11.350;2023-03-04T04:43:13;96732.59;;;-5.20;100.00
596;BME280;19946;49.306;11.350;2023-03-04T04:48:02;96753.09;;;-4.93;100.00
596;BME280;19946;49.306;11.350;2023-03-04T04:52:54;96738.88;;;-4.97;100.00
596;BME280;19946;49.306;11.350;2023-03-04T04:56:26;96748.00;;;-4.90;100.00
596;BME280;19946;49.306;11.350;2023-03-04T04:59:52;96749.72;;;-4.92;100.00
596;BME280;19946;49.306;11.350;2023-03-04T05:04:06;96733.22;;;-5.08;100.00
596;BME280;19946;49.306;11.350;2023-03-04T05:15:45;96748.50;;;-5.18;100.00
596;BME280;19946;49.306;11.350;2023-03-04T05:19:19;96732.91;;;-5.39;100.00
596;BME280;19946;49.306;11.350;2023-03-04T05:26:26;96509.44;;;-6.89;100.00
596;BME280;19946;49.306;11.350;2023-03-04T05:29:27;96516.91;;;-6.82;100.00
596;BME280;19946;49.306;11.350;2023-03-04T05:32:28;96595.16;;;-6.40;100.00
596;BME280;19946;49.306;11.350;2023-03-04T05:35:28;96758.69;;;-5.21;100.00
596;BME280;19946;49.306;11.350;2023-03-04T05:38:29;96777.84;;;-5.10;100.00
596;BME280;19946;49.306;11.350;2023-03-04T05:41:30;96582.25;;;-6.22;100.00
596;BME280;19946;49.306;11.350;2023-03-04T05:44:30;96546.47;;;-6.42;100.00
596;BME280;19946;49.306;11.350;2023-03-04T05:47:40;96592.13;;;-6.10;100.00
596;BME280;19946;49.306;11.350;2023-03-04T05:50:41;96763.16;;;-4.90;100.00
596;BME280;19946;49.306;11.350;2023-03-04T05:53:41;96538.03;;;-6.40;100.00
596;BME280;19946;49.306;11.350;2023-03-04T05:56:44;96519.84;;;-6.57;100.00
596;BME280;19946;49.306;11.350;2023-03-04T05:59:46;96725.75;;;-5.15;100.00
596;BME280;19946;49.306;11.350;2023-03-04T06:02:46;96659.06;;;-5.49;100.00
596;BME280;19946;49.306;11.350;2023-03-04T06:05:48;96720.09;;;-5.29;100.00
596;BME280;19946;49.306;11.350;2023-03-04T06:08:49;96528.78;;;-6.39;100.00
596;BME280;19946;49.306;11.350;2023-03-04T06:12:00;96702.19;;;-5.15;100.00
596;BME280;19946;49.306;11.350;2023-03-04T06:15:00;96616.72;;;-5.78;100.00
596;BME280;19946;49.306;11.350;2023-03-04T06:18:02;96721.31;;;-5.03;100.00
596;BME280;19946;49.306;11.350;2023-03-04T06:21:05;96513.31;;;-6.19;100.00
596;BME280;19946;49.306;11.350;2023-03-04T06:24:08;96786.88;;;-4.54;100.00
596;BME280;19946;49.306;11.350;2023-03-04T06:27:08;96779.22;;;-4.51;100.00
596;BME280;19946;49.306;11.350;2023-03-04T06:30:19;96580.66;;;-5.83;100.00
596;BME280;19946;49.306;11.350;2023-03-04T06:33:20;96692.66;;;-5.01;100.00
596;BME280;19946;49.306;11.350;2023-03-04T06:36:21;96637.53;;;-5.22;100.00
596;BME280;19946;49.306;11.350;2023-03-04T06:39:45;96795.53;;;-4.24;100.00
596;BME280;19946;49.306;11.350;2023-03-04T06:43:14;96709.75;;;-4.72;100.00
596;BME280;19946;49.306;11.350;2023-03-04T06:46:44;96643.47;;;-5.25;100.00
596;BME280;19946;49.306;11.350;2023-03-04T06:50:10;96675.22;;;-5.13;100.00
596;BME280;19946;49.306;11.350;2023-03-04T06:53:58;96655.06;;;-5.16;100.00
596;BME280;19946;49.306;11.350;2023-03-04T06:58:19;96696.66;;;-4.91;100.00
596;BME280;19946;49.306;11.350;2023-03-04T07:01:54;96666.78;;;-5.12;100.00
596;BME280;19946;49.306;11.350;2023-03-04T07:06:02;96820.56;;;-4.12;100.00
596;BME280;19946;49.306;11.350;2023-03-04T07:13:42;96649.97;;;-5.13;100.00
596;BME280;19946;49.306;11.350;2023-03-04T07:16:49;96827.31;;;-4.13;100.00
596;BME280;19946;49.306;11.350;2023-03-04T07:21:34;96824.75;;;-4.11;100.00
596;BME280;19946;49.306;11.350;2023-03-04T07:24:47;96818.06;;;-4.14;100.00
596;BME280;19946;49.306;11.350;2023-03-04T07:28:59;96834.94;;;-4.14;100.00
596;BME280;19946;49.306;11.350;2023-03-04T07:33:09;96827.91;;;-4.01;100.00
596;BME280;19946;49.306;11.350;2023-03-04T07:40:34;96662.47;;;-5.07;100.00
596;BME280;19946;49.306;11.350;2023-03-04T07:43:35;96719.19;;;-4.82;100.00
596;BME280;19946;49.306;11.350;2023-03-04T07:46:35;96602.84;;;-5.54;100.00
596;BME280;19946;49.306;11.350;2023-03-04T08:02:51;96680.06;;;-4.64;100.00
596;BME280;19946;49.306;11.350;2023-03-04T08:05:59;96866.53;;;-3.56;100.00
596;BME280;19946;49.306;11.350;2023-03-04T08:09:19;96679.25;;;-4.64;100.00
596;BME280;19946;49.306;11.350;2023-03-04T08:12:22;96747.66;;;-3.95;100.00
596;BME280;19946;49.306;11.350;2023-03-04T08:15:25;96791.75;;;-3.68;100.00
596;BME280;19946;49.306;11.350;2023-03-04T08:18:28;96665.69;;;-4.60;100.00
596;BME280;19946;49.306;11.350;2023-03-04T08:21:37;96844.78;;;-3.28;100.00
596;BME280;19946;49.306;11.350;2023-03-04T08:25:41;96854.97;;;-3.31;100.00
596;BME280;19946;49.306;11.350;2023-03-04T08:29:26;96847.31;;;-3.28;100.00
596;BME280;19946;49.306;11.350;2023-03-04T08:32:46;96849.78;;;-3.25;100.00
596;BME280;19946;49.306;11.350;2023-03-04T08:37:01;96853.44;;;-3.03;100.00
596;BME280;19946;49.306;11.350;2023-03-04T08:40:22;96838.22;;;-3.03;100.00
596;BME280;19946;49.306;11.350;2023-03-04T08:51:38;96832.31;;;-3.02;100.00
596;BME280;19946;49.306;11.350;2023-03-04T08:55:18;96794.28;;;-3.34;100.00
596;BME280;19946;49.306;11.350;2023-03-04T09:12:35;96811.28;;;-2.73;100.00
596;BME280;19946;49.306;11.350;2023-03-04T09:16:39;96847.22;;;-2.59;100.00
596;BME280;19946;49.306;11.350;2023-03-04T09:31:58;96850.22;;;-2.44;100.00
596;BME280;19946;49.306;11.350;2023-03-04T09:35:22;96656.34;;;-3.52;100.00
596;BME280;19946;49.306;11.350;2023-03-04T09:38:25;96856.50;;;-2.27;100.00
596;BME280;19946;49.306;11.350;2023-03-04T09:42:10;96675.44;;;-3.40;100.00
596;BME280;19946;49.306;11.350;2023-03-04T09:46:54;96867.19;;;-2.15;100.00
596;BME280;19946;49.306;11.350;2023-03-04T09:50:52;96851.28;;;-1.93;100.00
596;BME280;19946;49.306;11.350;2023-03-04T10:11:05;96852.63;;;-1.52;100.00
596;BME280;19946;49.306;11.350;2023-03-04T10:15:02;96846.19;;;-1.35;100.00
596;BME280;19946;49.306;11.350;2023-03-04T10:18:13;96843.69;;;-1.37;100.00
596;BME280;19946;49.306;11.350;2023-03-04T10:25:31;96758.66;;;-2.06;100.00
596;BME280;19946;49.306;11.350;2023-03-04T10:28:36;96822.63;;;-1.67;100.00
596;BME280;19946;49.306;11.350;2023-03-04T10:32:03;96818.63;;;-1.48;100.00
596;BME280;19946;49.306;11.350;2023-03-04T10:39:42;96845.22;;;-1.31;100.00
596;BME280;19946;49.306;11.350;2023-03-04T10:42:48;96826.75;;;-1.10;100.00
596;BME280;19946;49.306;11.350;2023-03-04T10:45:54;96653.63;;;-2.02;100.00
596;BME280;19946;49.306;11.350;2023-03-04T10:48:54;96822.84;;;-1.20;100.00
596;BME280;19946;49.306;11.350;2023-03-04T10:52:14;96845.59;;;-0.91;100.00
596;BME280;19946;49.306;11.350;2023-03-04T10:55:23;96753.34;;;-1.19;100.00
596;BME280;19946;49.306;11.350;2023-03-04T10:58:24;96832.19;;;-0.71;100.00
596;BME280;19946;49.306;11.350;2023-03-04T11:01:25;96824.25;;;-0.62;100.00
596;BME280;19946;49.306;11.350;2023-03-04T11:04:31;96845.69;;;-0.69;100.00
596;BME280;19946;49.306;11.350;2023-03-04T11:07:39;96728.44;;;-1.34;100.00
596;BME280;19946;49.306;11.350;2023-03-04T11:10:40;96739.91;;;-1.23;100.00
596;BME280;19946;49.306;11.350;2023-03-04T11:13:49;96833.22;;;-0.52;100.00
596;BME280;19946;49.306;11.350;2023-03-04T11:16:53;96829.25;;;-0.35;100.00
596;BME280;19946;49.306;11.350;2023-03-04T11:20:25;96818.34;;;-0.39;100.00
596;BME280;19946;49.306;11.350;2023-03-04T11:23:45;96822.94;;;-0.49;100.00
596;BME280;19946;49.306;11.350;2023-03-04T11:26:51;96813.00;;;-0.55;100.00
596;BME280;19946;49.306;11.350;2023-03-04T11:29:58;96806.63;;;-0.66;100.00
596;BME280;19946;49.306;11.350;2023-03-04T11:33:16;96829.50;;;-0.66;100.00
596;BME280;19946;49.306;11.350;2023-03-04T11:40:22;96822.38;;;-0.57;100.00
596;BME280;19946;49.306;11.350;2023-03-04T11:43:34;96744.16;;;-0.98;100.00
596;BME280;19946;49.306;11.350;2023-03-04T11:46:56;96792.88;;;-0.62;100.00
596;BME280;19946;49.306;11.350;2023-03-04T11:50:52;96528.78;;;-2.38;100.00
596;BME280;19946;49.306;11.350;2023-03-04T11:57:22;96797.88;;;-0.59;100.00
596;BME280;19946;49.306;11.350;2023-03-04T12:00:41;96644.28;;;-1.50;100.00
596;BME280;19946;49.306;11.350;2023-03-04T12:04:12;96782.63;;;-0.59;100.00
596;BME280;19946;49.306;11.350;2023-03-04T12:20:02;96758.59;;;-0.52;100.00
596;BME280;19946;49.306;11.350;2023-03-04T12:23:29;96766.47;;;-0.35;100.00
596;BME280;19946;49.306;11.350;2023-03-04T12:26:48;96764.72;;;-0.33;100.00
596;BME280;19946;49.306;11.350;2023-03-04T12:29:57;96669.66;;;-1.00;100.00
596;BME280;19946;49.306;11.350;2023-03-04T12:40:26;96528.50;;;-1.79;100.00
596;BME280;19946;49.306;11.350;2023-03-04T12:44:20;96731.06;;;-0.41;100.00
596;BME280;19946;49.306;11.350;2023-03-04T12:54:31;96599.28;;;-1.22;100.00
596;BME280;19946;49.306;11.350;2023-03-04T12:57:33;96741.13;;;-0.15;100.00
596;BME280;19946;49.306;11.350;2023-03-04T13:07:57;96744.13;;;-0.50;100.00
596;BME280;19946;49.306;11.350;2023-03-04T13:14:29;96730.09;;;-0.37;100.00
596;BME280;19946;49.306;11.350;2023-03-04T13:17:46;96737.66;;;-0.35;100.00
596;BME280;19946;49.306;11.350;2023-03-04T13:21:04;96542.59;;;-1.47;100.00
596;BME280;19946;49.306;11.350;2023-03-04T13:24:41;96723.22;;;-0.35;100.00
596;BME280;19946;49.306;11.350;2023-03-04T13:28:04;96706.69;;;-0.47;100.00
596;BME280;19946;49.306;11.350;2023-03-04T13:31:11;96741.97;;;-0.38;100.00
596;BME280;19946;49.306;11.350;2023-03-04T13:37:56;96639.00;;;-0.51;100.00
596;BME280;19946;49.306;11.350;2023-03-04T13:44:32;96713.69;;;-0.08;100.00
596;BME280;19946;49.306;11.350;2023-03-04T13:47:42;96624.19;;;-0.63;100.00
596;BME280;19946;49.306;11.350;2023-03-04T13:50:48;96693.38;;;-0.31;100.00
596;BME280;19946;49.306;11.350;2023-03-04T14:00:00;96697.22;;;0.00;100.00
596;BME280;19946;49.306;11.350;2023-03-04T14:03:13;96649.03;;;-0.24;100.00
596;BME280;19946;49.306;11.350;2023-03-04T14:06:25;96594.34;;;-0.58;100.00
596;BME280;19946;49.306;11.350;2023-03-04T14:09:32;96689.44;;;-0.17;100.00
596;BME280;19946;49.306;11.350;2023-03-04T14:12:35;96705.94;;;0.17;100.00
596;BME280;19946;49.306;11.350;2023-03-04T14:15:37;96588.84;;;-0.25;100.00
596;BME280;19946;49.306;11.350;2023-03-04T14:18:39;96632.94;;;0.17;100.00
596;BME280;19946;49.306;11.350;2023-03-04T14:21:43;96653.69;;;0.28;100.00
596;BME280;19946;49.306;11.350;2023-03-04T14:28:16;96669.91;;;0.26;100.00
596;BME280;19946;49.306;11.350;2023-03-04T14:31:18;96695.78;;;0.37;100.00
596;BME280;19946;49.306;11.350;2023-03-04T14:34:29;96682.38;;;0.12;100.00
596;BME280;19946;49.306;11.350;2023-03-04T14:37:42;96689.88;;;0.36;100.00
596;BME280;19946;49.306;11.350;2023-03-04T14:40:58;96652.88;;;0.28;100.00
596;BME280;19946;49.306;11.350;2023-03-04T14:44:13;96679.50;;;-0.01;100.00
596;BME280;19946;49.306;11.350;2023-03-04T14:47:27;96656.09;;;-0.11;100.00
596;BME280;19946;49.306;11.350;2023-03-04T14:50:30;96560.25;;;-0.54;100.00
596;BME280;19946;49.306;11.350;2023-03-04T14:53:32;96602.59;;;-0.31;100.00
596;BME280;19946;49.306;11.350;2023-03-04T14:56:34;96533.00;;;-0.72;100.00
596;BME280;19946;49.306;11.350;2023-03-04T14:59:34;96665.97;;;0.19;100.00
596;BME280;19946;49.306;11.350;2023-03-04T15:02:37;96664.25;;;0.19;100.00
596;BME280;19946;49.306;11.350;2023-03-04T15:05:38;96618.75;;;-0.32;100.00
596;BME280;19946;49.306;11.350;2023-03-04T15:08:39;96660.44;;;-0.13;100.00
596;BME280;19946;49.306;11.350;2023-03-04T15:11:49;96560.03;;;-0.48;100.00
596;BME280;19946;49.306;11.350;2023-03-04T15:14:53;96616.41;;;-0.15;100.00
596;BME280;19946;49.306;11.350;2023-03-04T15:18:00;96539.16;;;-0.56;100.00
596;BME280;19946;49.306;11.350;2023-03-04T15:21:23;96666.34;;;0.10;100.00
596;BME280;19946;49.306;11.350;2023-03-04T15:24:25;96611.09;;;-0.10;100.00
596;BME280;19946;49.306;11.350;2023-03-04T15:27:28;96645.16;;;0.29;100.00
596;BME280;19946;49.306;11.350;2023-03-04T15:30:31;96544.97;;;-0.32;100.00
596;BME280;19946;49.306;11.350;2023-03-04T15:33:32;96632.59;;;0.25;100.00
596;BME280;19946;49.306;11.350;2023-03-04T15:36:32;96591.84;;;-0.16;100.00
596;BME280;19946;49.306;11.350;2023-03-04T15:39:33;96640.16;;;0.06;100.00
596;BME280;19946;49.306;11.350;2023-03-04T15:42:33;96626.88;;;-0.01;100.00
596;BME280;19946;49.306;11.350;2023-03-04T15:45:36;96650.81;;;0.16;100.00
596;BME280;19946;49.306;11.350;2023-03-04T15:48:37;96512.13;;;-0.58;100.00
596;BME280;19946;49.306;11.350;2023-03-04T15:51:37;96623.06;;;0.10;100.00
596;BME280;19946;49.306;11.350;2023-03-04T15:54:38;96529.44;;;-0.46;100.00
596;BME280;19946;49.306;11.350;2023-03-04T15:57:38;96654.78;;;0.01;100.00
596;BME280;19946;49.306;11.350;2023-03-04T16:00:39;96532.69;;;-0.64;100.00
596;BME280;19946;49.306;11.350;2023-03-04T16:03:39;96632.59;;;0.05;100.00
596;BME280;19946;49.306;11.350;2023-03-04T16:06:44;96622.00;;;-0.07;100.00
596;BME280;19946;49.306;11.350;2023-03-04T16:09:49;96630.84;;;-0.15;100.00
596;BME280;19946;49.306;11.350;2023-03-04T16:12:52;96632.31;;;-0.10;100.00
596;BME280;19946;49.306;11.350;2023-03-04T16:15:53;96637.66;;;-0.16;100.00
596;BME280;19946;49.306;11.350;2023-03-04T16:18:54;96578.19;;;-0.35;100.00
596;BME280;19946;49.306;11.350;2023-03-04T16:21:55;96510.59;;;-0.84;100.00
596;BME280;19946;49.306;11.350;2023-03-04T16:24:55;96607.94;;;-0.15;100.00
596;BME280;19946;49.306;11.350;2023-03-04T16:27:56;96624.66;;;-0.10;100.00
596;BME280;19946;49.306;11.350;2023-03-04T16:30:58;96626.16;;;-0.04;100.00
596;BME280;19946;49.306;11.350;2023-03-04T16:33:58;96638.53;;;-0.17;100.00
596;BME280;19946;49.306;11.350;2023-03-04T16:37:02;96550.91;;;-0.53;100.00
596;BME280;19946;49.306;11.350;2023-03-04T16:40:05;96569.69;;;-0.56;100.00
596;BME280;19946;49.306;11.350;2023-03-04T16:43:05;96642.75;;;-0.16;100.00
596;BME280;19946;49.306;11.350;2023-03-04T16:46:06;96594.56;;;-0.42;100.00
596;BME280;19946;49.306;11.350;2023-03-04T16:49:07;96596.47;;;-0.47;100.00
596;BME280;19946;49.306;11.350;2023-03-04T16:52:16;96648.97;;;-0.23;100.00
596;BME280;19946;49.306;11.350;2023-03-04T16:55:24;96599.25;;;-0.53;100.00
596;BME280;19946;49.306;11.350;2023-03-04T16:58:31;96531.53;;;-0.99;100.00
596;BME280;19946;49.306;11.350;2023-03-04T17:01:59;96632.44;;;-0.34;100.00
596;BME280;19946;49.306;11.350;2023-03-04T17:05:56;96638.47;;;-0.37;100.00
596;BME280;19946;49.306;11.350;2023-03-04T17:09:23;96487.28;;;-1.39;100.00
596;BME280;19946;49.306;11.350;2023-03-04T17:12:28;96648.13;;;-0.45;100.00
596;BME280;19946;49.306;11.350;2023-03-04T17:15:30;96639.72;;;-0.47;100.00
596;BME280;19946;49.306;11.350;2023-03-04T17:18:30;96649.53;;;-0.38;100.00
596;BME280;19946;49.306;11.350;2023-03-04T17:21:31;96636.81;;;-0.38;100.00
596;BME280;19946;49.306;11.350;2023-03-04T17:24:32;96567.09;;;-0.76;100.00
596;BME280;19946;49.306;11.350;2023-03-04T17:27:33;96637.50;;;-0.33;100.00
596;BME280;19946;49.306;11.350;2023-03-04T17:30:33;96575.34;;;-0.71;100.00
596;BME280;19946;49.306;11.350;2023-03-04T17:33:33;96649.44;;;-0.35;100.00
596;BME280;19946;49.306;11.350;2023-03-04T17:36:34;96647.47;;;-0.28;100.00
596;BME280;19946;49.306;11.350;2023-03-04T17:39:34;96403.41;;;-1.83;100.00
596;BME280;19946;49.306;11.350;2023-03-04T17:42:34;96543.56;;;-1.04;100.00
596;BME280;19946;49.306;11.350;2023-03-04T17:45:34;96550.09;;;-0.97;100.00
596;BME280;19946;49.306;11.350;2023-03-04T17:48:35;96646.28;;;-0.42;100.00
596;BME280;19946;49.306;11.350;2023-03-04T17:51:38;96650.06;;;-0.30;100.00
596;BME280;19946;49.306;11.350;2023-03-04T17:54:38;96641.03;;;-0.37;100.00
596;BME280;19946;49.306;11.350;2023-03-04T17:57:38;96645.94;;;-0.32;100.00
596;BME280;19946;49.306;11.350;2023-03-04T18:00:39;96599.75;;;-0.65;100.00
596;BME280;19946;49.306;11.350;2023-03-04T18:03:39;96484.19;;;-1.47;100.00
596;BME280;19946;49.306;11.350;2023-03-04T18:06:39;96644.50;;;-0.40;100.00
596;BME280;19946;49.306;11.350;2023-03-04T18:09:42;96641.50;;;-0.49;100.00
596;BME280;19946;49.306;11.350;2023-03-04T18:12:43;96530.28;;;-1.11;100.00
596;BME280;19946;49.306;11.350;2023-03-04T18:15:43;96641.66;;;-0.32;100.00
596;BME280;19946;49.306;11.350;2023-03-04T18:18:44;96642.63;;;-0.34;100.00
596;BME280;19946;49.306;11.350;2023-03-04T18:21:44;96632.91;;;-0.47;100.00
596;BME280;19946;49.306;11.350;2023-03-04T18:24:45;96612.53;;;-0.45;100.00
596;BME280;19946;49.306;11.350;2023-03-04T18:27:58;96636.34;;;-0.48;100.00
596;BME280;19946;49.306;11.350;2023-03-04T18:30:59;96626.06;;;-0.45;100.00
596;BME280;19946;49.306;11.350;2023-03-04T18:34:00;96467.91;;;-1.41;100.00
596;BME280;19946;49.306;11.350;2023-03-04T18:37:01;96632.91;;;-0.47;100.00
596;BME280;19946;49.306;11.350;2023-03-04T18:40:01;96571.81;;;-0.89;100.00
596;BME280;19946;49.306;11.350;2023-03-04T18:43:01;96599.50;;;-0.59;100.00
596;BME280;19946;49.306;11.350;2023-03-04T18:49:05;96612.63;;;-0.48;100.00
596;BME280;19946;49.306;11.350;2023-03-04T18:52:07;96604.75;;;-0.64;100.00
596;BME280;19946;49.306;11.350;2023-03-04T18:55:08;96635.06;;;-0.36;100.00
596;BME280;19946;49.306;11.350;2023-03-04T18:58:10;96570.75;;;-0.61;100.00
596;BME280;19946;49.306;11.350;2023-03-04T19:01:10;96583.66;;;-0.66;100.00
596;BME280;19946;49.306;11.350;2023-03-04T19:04:12;96640.91;;;-0.34;100.00
596;BME280;19946;49.306;11.350;2023-03-04T19:07:13;96621.09;;;-0.48;100.00
596;BME280;19946;49.306;11.350;2023-03-04T19:10:14;96590.97;;;-0.58;100.00
596;BME280;19946;49.306;11.350;2023-03-04T19:13:15;96635.28;;;-0.42;100.00
596;BME280;19946;49.306;11.350;2023-03-04T19:16:17;96636.47;;;-0.51;100.00
596;BME280;19946;49.306;11.350;2023-03-04T19:19:20;96628.06;;;-0.53;100.00
596;BME280;19946;49.306;11.350;2023-03-04T19:22:20;96590.03;;;-0.78;100.00
596;BME280;19946;49.306;11.350;2023-03-04T19:25:22;96611.13;;;-0.54;100.00
596;BME280;19946;49.306;11.350;2023-03-04T19:28:23;96632.09;;;-0.47;100.00
596;BME280;19946;49.306;11.350;2023-03-04T19:31:23;96641.25;;;-0.43;100.00
596;BME280;19946;49.306;11.350;2023-03-04T19:34:24;96552.34;;;-0.90;100.00
596;BME280;19946;49.306;11.350;2023-03-04T19:37:26;96618.50;;;-0.46;100.00
596;BME280;19946;49.306;11.350;2023-03-04T19:40:27;96441.81;;;-1.68;100.00
596;BME280;19946;49.306;11.350;2023-03-04T19:43:28;96465.81;;;-1.54;100.00
596;BME280;19946;49.306;11.350;2023-03-04T19:46:31;96558.63;;;-0.98;100.00
596;BME280;19946;49.306;11.350;2023-03-04T19:49:32;96596.38;;;-0.66;100.00
596;BME280;19946;49.306;11.350;2023-03-04T19:52:33;96575.91;;;-0.86;100.00
596;BME280;19946;49.306;11.350;2023-03-04T19:55:36;96629.59;;;-0.49;100.00
596;BME280;19946;49.306;11.350;2023-03-04T19:58:37;96621.19;;;-0.51;100.00
596;BME280;19946;49.306;11.350;2023-03-04T20:01:39;96625.50;;;-0.53;100.00
596;BME280;19946;49.306;11.350;2023-03-04T20:04:40;96548.16;;;-0.91;100.00
596;BME280;19946;49.306;11.350;2023-03-04T20:07:41;96613.41;;;-0.46;100.00
596;BME280;19946;49.306;11.350;2023-03-04T20:10:42;96622.91;;;-0.51;100.00
596;BME280;19946;49.306;11.350;2023-03-04T20:13:43;96628.13;;;-0.54;100.00
596;BME280;19946;49.306;11.350;2023-03-04T20:16:44;96553.69;;;-1.03;100.00
596;BME280;19946;49.306;11.350;2023-03-04T20:19:44;96555.34;;;-1.02;100.00
596;BME280;19946;49.306;11.350;2023-03-04T20:22:45;96567.94;;;-0.99;100.00
596;BME280;19946;49.306;11.350;2023-03-04T20:25:46;96581.72;;;-0.83;100.00
596;BME280;19946;49.306;11.350;2023-03-04T20:28:49;96616.03;;;-0.71;100.00
596;BME280;19946;49.306;11.350;2023-03-04T20:31:51;96421.25;;;-1.84;100.00
596;BME280;19946;49.306;11.350;2023-03-04T20:34:51;96622.13;;;-0.53;100.00
596;BME280;19946;49.306;11.350;2023-03-04T20:37:56;96595.75;;;-0.73;100.00
596;BME280;19946;49.306;11.350;2023-03-04T20:40:56;96603.22;;;-0.68;100.00
596;BME280;19946;49.306;11.350;2023-03-04T20:43:58;96601.38;;;-0.64;100.00
596;BME280;19946;49.306;11.350;2023-03-04T20:47:02;96527.22;;;-1.19;100.00
596;BME280;19946;49.306;11.350;2023-03-04T20:50:04;96573.56;;;-0.91;100.00
596;BME280;19946;49.306;11.350;2023-03-04T20:53:05;96621.13;;;-0.71;100.00
596;BME280;19946;49.306;11.350;2023-03-04T20:56:08;96634.94;;;-0.55;100.00